Time;durP1;ratioP1;P1;durP2;ratioP2;P2;SDS_P1;SDS_P2;PMS_P1;PMS_P2;Temp;Humidity;BMP_temperature;BMP_pressure;BME280_temperature;BME280_humidity;BME280_pressure;Samples;Min_cycle;Max_cycle;Signal;HPM_P1;HPM_P2
2022/12/08 00:01:14;;;;;;;5.35;0.73;;;;;;;5.33;100.00;101195.28;5009198;28;20034;-65
2022/12/08 00:03:40;;;;;;;2.65;0.52;;;;;;;5.29;100.00;101188.31;5007738;28;20113;-65
2022/12/08 00:11:37;;;;;;;2.10;0.63;;;;;;;5.04;100.00;101167.56;5008935;28;20083;-65
2022/12/08 00:14:03;;;;;;;3.55;0.57;;;;;;;4.95;100.00;101165.88;5007915;28;20345;-64
2022/12/08 00:16:28;;;;;;;1.92;0.70;;;;;;;4.88;100.00;101166.78;5009049;28;20032;-64
2022/12/08 00:18:53;;;;;;;1.95;0.50;;;;;;;4.90;100.00;101162.41;5008105;28;20092;-65
2022/12/08 00:21:19;;;;;;;0.35;0.35;;;;;;;4.90;100.00;101159.78;5008711;28;20042;-66
2022/12/08 00:23:44;;;;;;;2.63;0.60;;;;;;;4.90;100.00;101154.56;5005685;28;20034;-66
2022/12/08 00:26:09;;;;;;;0.68;0.43;;;;;;;4.89;100.00;101155.44;5008707;28;20530;-65
2022/12/08 00:28:35;;;;;;;1.80;0.50;;;;;;;4.87;100.00;101144.13;5006574;28;20120;-65
2022/12/08 00:31:07;;;;;;;1.75;0.82;;;;;;;4.82;100.00;101132.84;5007701;28;20493;-67
2022/12/08 00:33:32;;;;;;;3.28;0.80;;;;;;;4.82;100.00;101130.25;5008161;28;20456;-66
2022/12/08 00:35:58;;;;;;;4.35;1.00;;;;;;;4.74;100.00;101128.53;5008275;28;20037;-65
2022/12/08 00:38:23;;;;;;;1.63;0.73;;;;;;;4.64;100.00;101125.09;5008671;28;20113;-65
2022/12/08 00:40:48;;;;;;;1.35;0.80;;;;;;;4.63;100.00;101123.38;5008280;28;20047;-65
2022/12/08 00:43:14;;;;;;;3.20;0.90;;;;;;;4.64;100.00;101119.88;5008346;28;20366;-65
2022/12/08 00:45:39;;;;;;;4.30;0.80;;;;;;;4.69;100.00;101122.47;5007660;28;20080;-66
2022/12/08 00:48:05;;;;;;;3.40;1.13;;;;;;;4.72;100.00;101125.06;5008715;28;20022;-65
2022/12/08 00:50:31;;;;;;;2.78;1.60;;;;;;;4.74;100.00;101117.22;5008523;28;20544;-66
2022/12/08 00:52:56;;;;;;;2.65;2.45;;;;;;;4.82;100.00;101114.56;5008101;28;20049;-64
2022/12/08 00:55:21;;;;;;;6.57;3.35;;;;;;;4.79;100.00;101111.09;5007593;28;20034;-65
2022/12/08 00:57:47;;;;;;;7.25;3.80;;;;;;;4.76;100.00;101111.09;5008030;28;20034;-66
2022/12/08 01:00:12;;;;;;;5.82;3.58;;;;;;;4.78;100.00;101105.88;5006935;28;20022;-65
2022/12/08 01:02:38;;;;;;;9.07;4.15;;;;;;;4.78;100.00;101111.09;5008448;28;20041;-65
2022/12/08 01:05:04;;;;;;;6.75;4.90;;;;;;;4.83;100.00;101098.03;5008012;28;20029;-65
2022/12/08 01:07:29;;;;;;;6.78;5.07;;;;;;;4.84;100.00;101099.78;5008206;28;20050;-65
2022/12/08 01:09:56;;;;;;;7.32;5.30;;;;;;;4.92;100.00;101095.38;5007895;28;20022;-65
2022/12/08 01:12:21;;;;;;;6.88;5.25;;;;;;;4.88;100.00;101094.50;5008178;28;20038;-65
2022/12/08 01:14:47;;;;;;;8.15;6.25;;;;;;;4.96;100.00;101093.63;5007322;28;20703;-66
2022/12/08 01:17:12;;;;;;;12.80;6.75;;;;;;;4.97;100.00;101111.84;5007875;28;20135;-64
2022/12/08 01:19:37;;;;;;;6.95;4.97;;;;;;;4.93;100.00;101108.41;5008658;28;20026;-65
2022/12/08 01:22:03;;;;;;;2.75;2.50;;;;;;;5.06;100.00;101108.34;5007497;28;20029;-64
2022/12/08 01:24:28;;;;;;;6.13;1.95;;;;;;;4.99;100.00;101099.66;5006132;28;20025;-65
2022/12/08 01:26:53;;;;;;;3.35;1.83;;;;;;;5.07;100.00;101094.41;5007781;28;20022;-64
2022/12/08 01:29:19;;;;;;;2.90;2.20;;;;;;;5.12;100.00;101082.16;5006110;28;20483;-65
2022/12/08 01:31:44;;;;;;;2.45;1.92;;;;;;;5.20;100.00;101089.94;5010073;28;20033;-67
2022/12/08 01:34:10;;;;;;;6.32;2.78;;;;;;;5.23;100.00;101081.22;5011573;28;20037;-66
2022/12/08 01:36:36;;;;;;;2.75;2.03;;;;;;;5.31;100.00;101082.03;5011620;28;20036;-65
2022/12/08 01:39:02;;;;;;;4.68;1.95;;;;;;;5.35;100.00;101077.63;5011352;28;20495;-66
2022/12/08 01:41:30;;;;;;;6.78;2.42;;;;;;;5.37;100.00;101096.78;5011587;28;20033;-66
2022/12/08 01:43:59;;;;;;;4.15;2.30;;;;;;;5.38;100.00;101098.53;5009593;28;20104;-65
2022/12/08 01:46:25;;;;;;;3.63;2.40;;;;;;;5.43;100.00;101094.13;5011134;28;20060;-65
2022/12/08 01:48:53;;;;;;;5.07;2.20;;;;;;;5.51;100.00;101074.00;5009635;28;20272;-66
2022/12/08 01:51:19;;;;;;;4.82;2.50;;;;;;;5.42;100.00;101068.91;5010695;28;20129;-66
2022/12/08 01:53:45;;;;;;;4.65;2.50;;;;;;;5.47;100.00;101071.44;5010495;28;20109;-65
2022/12/08 01:56:27;;;;;;;3.97;2.53;;;;;;;5.44;100.00;101075.84;5010136;28;20038;-64
2022/12/08 01:58:53;;;;;;;2.47;1.38;;;;;;;5.46;100.00;101080.16;5009456;28;20026;-64
2022/12/08 02:01:19;;;;;;;4.93;1.98;;;;;;;5.47;100.00;101082.78;5010898;28;20041;-64
2022/12/08 02:03:52;;;;;;;3.85;1.80;;;;;;;5.50;100.00;101087.97;5008667;28;20022;-64
2022/12/08 02:06:17;;;;;;;4.72;2.40;;;;;;;5.44;100.00;101078.44;5009726;28;20033;-63
2022/12/08 02:08:43;;;;;;;2.38;2.05;;;;;;;5.51;100.00;101079.25;5008828;28;20037;-64
2022/12/08 02:11:10;;;;;;;3.80;2.40;;;;;;;5.51;100.00;101079.25;5010254;28;20044;-64
2022/12/08 02:13:35;;;;;;;6.47;2.97;;;;;;;5.52;100.00;101070.53;5010167;28;20030;-65
2022/12/08 02:16:26;;;;;;;3.75;3.08;;;;;;;5.51;100.00;101057.47;5008977;28;20041;-63
2022/12/08 02:18:51;;;;;;;13.63;4.18;;;;;;;5.47;100.00;101060.97;5010416;28;20117;-64
2022/12/08 02:21:50;;;;;;;5.72;3.25;;;;;;;5.43;100.00;101061.03;5010589;28;20121;-64
2022/12/08 02:24:31;;;;;;;4.47;3.45;;;;;;;5.44;100.00;101062.75;5009391;28;20068;-64
2022/12/08 02:27:11;;;;;;;3.70;3.40;;;;;;;5.43;100.00;101060.16;5010403;28;20385;-63
2022/12/08 02:30:03;;;;;;;6.50;4.53;;;;;;;5.35;100.00;101056.72;5009324;28;20076;-65
2022/12/08 02:32:54;;;;;;;7.13;4.60;;;;;;;5.37;100.00;101057.59;5009335;28;20038;-65
2022/12/08 02:35:42;;;;;;;8.82;5.03;;;;;;;5.26;100.00;101063.78;5010002;28;20034;-65
2022/12/08 02:38:23;;;;;;;6.70;3.40;;;;;;;5.24;100.00;101056.84;5009170;28;20038;-65
2022/12/08 02:40:52;;;;;;;9.30;3.95;;;;;;;5.39;100.00;101064.53;5008666;28;20041;-64
2022/12/08 02:43:21;;;;;;;3.65;3.33;;;;;;;5.44;100.00;101065.38;5009015;28;20029;-65
2022/12/08 02:45:50;;;;;;;8.05;3.35;;;;;;;5.47;100.00;101054.03;5008344;28;20554;-64
2022/12/08 02:48:16;;;;;;;3.35;2.00;;;;;;;5.44;100.00;101041.84;5010069;28;20060;-65
2022/12/08 02:50:41;;;;;;;3.95;1.25;;;;;;;5.53;100.00;101045.25;5009871;28;20433;-64
2022/12/08 02:53:07;;;;;;;5.05;0.73;;;;;;;5.45;100.00;101021.81;5007677;28;20030;-64
2022/12/08 02:55:51;;;;;;;6.82;1.05;;;;;;;5.46;100.00;101013.09;5008715;28;20097;-64
2022/12/08 02:58:44;;;;;;;2.30;0.70;;;;;;;5.46;100.00;101017.44;5008555;28;20041;-65
2022/12/08 03:01:34;;;;;;;3.70;0.55;;;;;;;5.47;100.00;101020.03;5010092;28;20167;-67
2022/12/08 03:04:08;;;;;;;2.53;0.52;;;;;;;5.43;100.00;101024.44;5008473;28;20404;-65
2022/12/08 03:06:38;;;;;;;3.00;0.70;;;;;;;5.36;100.00;101008.84;5008195;28;20549;-64
2022/12/08 03:09:09;;;;;;;5.63;0.38;;;;;;;5.37;100.00;101007.94;5008771;28;20122;-64
2022/12/08 03:11:42;;;;;;;2.80;0.40;;;;;;;5.36;100.00;101008.84;5008748;28;20034;-66
2022/12/08 03:14:09;;;;;;;2.30;0.50;;;;;;;5.31;100.00;101001.91;5009100;28;20075;-65
2022/12/08 03:16:38;;;;;;;3.40;0.70;;;;;;;5.26;100.00;101003.69;5024974;28;20084;-65
2022/12/08 03:19:09;;;;;;;;;;;;;;;5.34;100.00;100997.53;5008227;28;20025;-63
2022/12/08 03:21:35;;;;;;;5.50;0.77;;;;;;;5.21;100.00;101008.06;5008340;28;20383;-64
2022/12/08 03:24:03;;;;;;;5.45;0.43;;;;;;;5.29;100.00;101000.16;5007779;28;20026;-64
2022/12/08 03:26:45;;;;;;;0.63;0.40;;;;;;;5.18;100.00;101022.03;5008272;28;20065;-64
2022/12/08 03:29:11;;;;;;;1.30;0.40;;;;;;;5.19;100.00;100999.41;5005688;28;20065;-64
2022/12/08 03:31:40;;;;;;;2.05;0.52;;;;;;;5.15;100.00;100987.25;5008343;28;20029;-65
2022/12/08 03:34:06;;;;;;;1.63;0.47;;;;;;;5.09;100.00;100992.53;5007387;28;20107;-63
2022/12/08 03:36:32;;;;;;;3.08;0.28;;;;;;;5.09;100.00;100979.47;5008102;28;20036;-62
2022/12/08 03:38:57;;;;;;;3.13;0.50;;;;;;;5.08;100.00;100980.34;5009381;28;20026;-63
2022/12/08 03:41:23;;;;;;;2.35;1.25;;;;;;;5.11;100.00;100977.69;5007954;28;20041;-63
2022/12/08 03:43:49;;;;;;;2.45;0.57;;;;;;;5.09;100.00;100974.25;4990767;28;20036;-62
2022/12/08 03:46:15;;;;;;;4.38;0.60;;;;;;;4.99;100.00;100969.09;5009236;28;20084;-64
2022/12/08 03:48:40;;;;;;;3.17;0.60;;;;;;;4.96;100.00;100976.09;5007051;28;20046;-64
2022/12/08 03:51:06;;;;;;;8.10;1.05;;;;;;;4.96;100.00;100966.50;5008940;28;20061;-64
2022/12/08 03:53:31;;;;;;;2.10;0.40;;;;;;;4.99;100.00;100969.09;5007756;28;20445;-63
2022/12/08 03:55:56;;;;;;;5.13;0.47;;;;;;;4.97;100.00;100970.84;5008422;28;20030;-65
2022/12/08 03:58:22;;;;;;;3.03;0.50;;;;;;;5.04;100.00;100974.28;5008063;28;20033;-63
2022/12/08 04:00:47;;;;;;;4.78;0.70;;;;;;;5.04;100.00;100964.72;5008831;28;20061;-64
2022/12/08 04:03:12;;;;;;;6.80;0.75;;;;;;;5.07;100.00;100955.97;5008992;28;20026;-63
2022/12/08 04:05:38;;;;;;;6.70;0.70;;;;;;;5.04;100.00;100964.72;5009516;28;20041;-64
2022/12/08 04:08:03;;;;;;;2.15;0.50;;;;;;;5.03;100.00;100965.56;5008846;28;20511;-64
2022/12/08 04:10:29;;;;;;;0.52;0.20;;;;;;;5.05;100.00;100961.19;5009064;28;20033;-63
2022/12/08 04:12:55;;;;;;;9.48;0.73;;;;;;;5.04;100.00;100969.06;5007986;28;20022;-64
2022/12/08 04:15:20;;;;;;;7.32;0.73;;;;;;;4.92;100.00;100963.06;5007163;28;20061;-64
2022/12/08 04:17:46;;;;;;;2.10;0.70;;;;;;;4.99;100.00;100963.88;5007971;28;20057;-64
2022/12/08 04:20:11;;;;;;;4.30;0.77;;;;;;;5.03;100.00;100964.72;5008523;28;20065;-65
2022/12/08 04:22:36;;;;;;;14.48;3.05;;;;;;;5.08;100.00;100959.47;5008518;28;20029;-65
2022/12/08 04:25:02;;;;;;;1.13;0.50;;;;;;;5.04;100.00;100962.09;5008293;28;20109;-65
2022/12/08 04:27:28;;;;;;;4.72;0.60;;;;;;;4.89;100.00;100970.03;5008536;28;20026;-65
2022/12/08 04:29:53;;;;;;;4.70;0.90;;;;;;;4.90;100.00;100954.38;5007278;28;20033;-65
2022/12/08 04:32:18;;;;;;;5.18;0.55;;;;;;;4.85;100.00;100950.06;5008748;28;20109;-65
2022/12/08 04:34:44;;;;;;;1.63;0.57;;;;;;;4.92;100.00;100950.00;5007126;28;20030;-66
2022/12/08 04:37:09;;;;;;;6.22;0.50;;;;;;;4.93;100.00;100948.25;5008968;28;20108;-67
2022/12/08 04:39:34;;;;;;;1.58;0.35;;;;;;;5.02;100.00;100955.13;5005115;28;20076;-65
2022/12/08 04:41:59;;;;;;;8.75;1.08;;;;;;;4.92;100.00;100951.75;5007204;28;20030;-65
2022/12/08 04:44:25;;;;;;;6.35;0.70;;;;;;;5.04;100.00;100959.47;5006721;28;20037;-65
2022/12/08 04:46:50;;;;;;;5.55;0.70;;;;;;;5.01;100.00;100953.41;5007489;28;20026;-66
2022/12/08 04:49:16;;;;;;;1.85;0.47;;;;;;;4.93;100.00;100946.50;5008163;28;20026;-65
2022/12/08 04:51:41;;;;;;;2.72;0.32;;;;;;;5.04;100.00;100946.41;5008100;28;20025;-66
2022/12/08 04:54:06;;;;;;;8.30;0.65;;;;;;;5.12;100.00;100937.66;5008763;28;20026;-65
2022/12/08 04:56:31;;;;;;;2.45;0.73;;;;;;;5.23;100.00;100941.00;5008284;28;20068;-65
2022/12/08 04:58:57;;;;;;;6.65;0.82;;;;;;;5.19;100.00;100923.63;5007517;28;20026;-66
2022/12/08 05:01:22;;;;;;;6.22;0.40;;;;;;;5.25;100.00;100930.53;5008482;28;20037;-66
2022/12/08 05:03:47;;;;;;;4.38;0.40;;;;;;;5.29;100.00;100932.22;5008437;28;20436;-65
2022/12/08 05:06:13;;;;;;;1.30;0.30;;;;;;;5.27;100.00;100932.25;5011380;28;20504;-66
2022/12/08 05:08:39;;;;;;;3.30;0.60;;;;;;;5.31;100.00;100933.97;5002621;28;20563;-65
2022/12/08 05:11:06;;;;;;;7.57;0.85;;;;;;;5.31;100.00;100926.13;4992667;28;20377;-66
2022/12/08 05:13:32;;;;;;;2.85;0.43;;;;;;;5.33;100.00;100920.91;4999416;28;20034;-66
2022/12/08 05:16:09;;;;;;;3.40;0.55;;;;;;;5.28;100.00;100920.94;5011400;28;20088;-66
2022/12/08 05:18:34;;;;;;;7.90;1.25;;;;;;;5.22;100.00;100925.34;5011219;28;20041;-65
2022/12/08 05:21:00;;;;;;;3.08;0.50;;;;;;;5.24;100.00;100921.81;5010918;28;20013;-66
2022/12/08 05:23:26;;;;;;;3.67;0.50;;;;;;;5.28;100.00;100913.09;5011409;28;20029;-66
2022/12/08 05:25:51;;;;;;;3.75;0.65;;;;;;;5.28;100.00;100915.72;5003039;28;20025;-65
2022/12/08 05:28:16;;;;;;;1.98;0.40;;;;;;;5.30;100.00;100910.47;5007111;28;20099;-66
2022/12/08 05:30:42;;;;;;;4.15;0.57;;;;;;;5.28;100.00;100909.63;5011190;28;20021;-66
2022/12/08 05:33:07;;;;;;;2.05;0.43;;;;;;;5.23;100.00;100908.78;5011472;28;20168;-65
2022/12/08 05:35:32;;;;;;;1.13;0.50;;;;;;;5.22;100.00;100909.66;5003696;28;20070;-66
2022/12/08 05:37:58;;;;;;;1.95;0.80;;;;;;;5.12;100.00;100908.91;5010913;28;20045;-66
2022/12/08 05:40:23;;;;;;;5.57;0.60;;;;;;;5.09;100.00;100914.16;5010816;28;20480;-66
2022/12/08 05:42:48;;;;;;;4.10;0.70;;;;;;;5.02;100.00;100911.59;5009280;28;20392;-65
2022/12/08 05:45:14;;;;;;;2.92;0.60;;;;;;;4.93;100.00;100909.94;5011208;28;20432;-65
2022/12/08 05:47:39;;;;;;;5.28;0.63;;;;;;;4.89;100.00;100912.59;5011074;28;20094;-66
2022/12/08 05:50:05;;;;;;;6.80;0.77;;;;;;;4.98;100.00;100928.19;5011021;28;20105;-65
2022/12/08 05:52:31;;;;;;;3.05;0.52;;;;;;;4.93;100.00;100937.78;5009250;28;20054;-66
2022/12/08 05:54:56;;;;;;;3.72;0.50;;;;;;;4.89;100.00;100938.72;5010981;28;20796;-66
2022/12/08 05:57:21;;;;;;;2.20;0.40;;;;;;;4.64;100.00;100944.13;5010198;28;20080;-66
2022/12/08 05:59:47;;;;;;;3.45;0.40;;;;;;;4.50;100.00;100941.63;5009503;28;20026;-66
2022/12/08 06:02:12;;;;;;;0.35;0.15;;;;;;;4.32;100.00;100964.34;5009020;28;20137;-67
2022/12/08 06:04:37;;;;;;;1.00;0.28;;;;;;;4.29;100.00;100954.81;5010967;28;20504;-65
2022/12/08 06:07:03;;;;;;;0.47;0.22;;;;;;;4.19;100.00;100963.56;5008786;28;20045;-65
2022/12/08 06:09:28;;;;;;;0.40;0.20;;;;;;;4.15;100.00;100965.31;5010832;28;20030;-64
2022/12/08 06:11:53;;;;;;;1.83;0.30;;;;;;;4.11;100.00;100960.09;5009607;28;20022;-64
2022/12/08 06:14:19;;;;;;;0.70;0.28;;;;;;;4.02;100.00;100964.50;5010052;28;20029;-63
2022/12/08 06:16:44;;;;;;;4.60;0.75;;;;;;;3.84;100.00;100961.97;5009433;28;20046;-63
2022/12/08 06:19:09;;;;;;;0.45;0.40;;;;;;;3.83;100.00;100962.84;5010975;28;20021;-64
2022/12/08 06:21:35;;;;;;;0.25;0.20;;;;;;;3.93;100.00;100961.94;5011083;28;20388;-63
2022/12/08 06:24:00;;;;;;;1.10;0.40;;;;;;;3.96;100.00;100946.28;5010441;28;20061;-64
2022/12/08 06:26:25;;;;;;;3.10;0.40;;;;;;;4.02;100.00;100941.03;5009666;28;20385;-63
2022/12/08 06:28:51;;;;;;;3.17;0.40;;;;;;;3.99;100.00;100935.84;5008554;28;20040;-62
2022/12/08 06:31:24;;;;;;;1.13;0.30;;;;;;;4.10;100.00;100937.50;5009507;28;20042;-63
2022/12/08 06:33:49;;;;;;;4.13;0.70;;;;;;;4.09;100.00;100934.03;5009032;28;20411;-65
2022/12/08 06:36:17;;;;;;;0.57;0.50;;;;;;;4.11;100.00;100931.41;5010251;28;20030;-62
2022/12/08 06:38:43;;;;;;;0.25;0.25;;;;;;;4.15;100.00;100922.69;5010245;28;20041;-64
2022/12/08 06:41:08;;;;;;;0.90;0.20;;;;;;;4.15;100.00;100914.88;5009200;28;20026;-62
2022/12/08 06:43:33;;;;;;;2.53;0.52;;;;;;;4.10;100.00;100916.66;5009499;28;20057;-64
2022/12/08 06:46:00;;;;;;;0.35;0.30;;;;;;;4.06;100.00;100914.94;5009648;28;20033;-63
2022/12/08 06:48:26;;;;;;;1.05;0.55;;;;;;;3.95;100.00;100918.47;5010002;28;20098;-63
2022/12/08 06:50:51;;;;;;;0.73;0.25;;;;;;;3.98;100.00;100912.38;5009454;28;20125;-65
2022/12/08 06:53:17;;;;;;;0.70;0.40;;;;;;;3.97;100.00;100919.31;5008777;28;20491;-65
2022/12/08 06:55:51;;;;;;;2.03;0.50;;;;;;;3.92;100.00;100915.88;5006999;28;20636;-64
2022/12/08 06:58:17;;;;;;;1.15;0.65;;;;;;;3.95;100.00;100913.25;5006291;28;20430;-64
2022/12/08 07:00:43;;;;;;;3.90;0.55;;;;;;;3.88;100.00;100912.41;5008262;28;20033;-63
2022/12/08 07:03:09;;;;;;;2.35;0.70;;;;;;;3.93;100.00;100904.56;5010265;28;20026;-64
2022/12/08 07:05:36;;;;;;;0.57;0.57;;;;;;;3.90;100.00;100909.78;5008683;28;20719;-63
2022/12/08 07:08:02;;;;;;;0.70;0.68;;;;;;;3.92;100.00;100908.06;5007706;28;20054;-65
2022/12/08 07:10:27;;;;;;;4.28;1.95;;;;;;;3.92;100.00;100908.91;5009960;28;20022;-64
2022/12/08 07:12:53;;;;;;;1.25;0.60;;;;;;;3.93;100.00;100912.41;5008506;28;20026;-65
2022/12/08 07:15:18;;;;;;;0.60;0.57;;;;;;;3.93;100.00;100917.59;5009409;28;20041;-64
2022/12/08 07:17:44;;;;;;;6.70;1.30;;;;;;;3.92;100.00;100913.28;5008952;28;20022;-65
2022/12/08 07:20:09;;;;;;;1.15;0.80;;;;;;;3.94;100.00;100921.09;5008518;28;20021;-66
2022/12/08 07:22:34;;;;;;;1.95;0.95;;;;;;;3.85;100.00;100916.78;5009225;28;20038;-65
2022/12/08 07:25:00;;;;;;;3.35;0.73;;;;;;;3.89;100.00;100915.91;5008097;28;20030;-64
2022/12/08 07:27:25;;;;;;;2.90;0.80;;;;;;;3.92;100.00;100913.28;5008528;28;20030;-64
2022/12/08 07:29:50;;;;;;;3.80;1.00;;;;;;;3.85;100.00;100912.41;5008958;28;20026;-65
2022/12/08 07:32:16;;;;;;;0.88;0.70;;;;;;;3.85;100.00;100908.97;5008932;28;20022;-65
2022/12/08 07:34:41;;;;;;;2.28;0.88;;;;;;;3.77;100.00;100909.00;5008261;28;20084;-65
2022/12/08 07:37:06;;;;;;;1.20;1.10;;;;;;;3.80;100.00;100911.59;5009108;28;20558;-65
2022/12/08 07:39:32;;;;;;;1.55;0.80;;;;;;;3.86;100.00;100911.56;5009039;28;20452;-66
2022/12/08 07:41:57;;;;;;;0.60;0.60;;;;;;;3.83;100.00;100911.59;5007902;28;20056;-65
2022/12/08 07:44:23;;;;;;;2.67;0.70;;;;;;;3.80;100.00;100909.00;5007676;28;20025;-67
2022/12/08 07:46:48;;;;;;;1.95;1.00;;;;;;;3.89;100.00;100913.28;5007854;28;20141;-67
2022/12/08 07:49:13;;;;;;;1.40;0.88;;;;;;;3.94;100.00;100910.66;4994441;28;20040;-65
2022/12/08 07:51:39;;;;;;;1.40;1.00;;;;;;;3.95;100.00;100915.00;4988764;28;20026;-66
2022/12/08 07:54:04;;;;;;;2.92;1.08;;;;;;;3.98;100.00;100914.97;4987969;28;20110;-65
2022/12/08 07:56:30;;;;;;;1.13;0.90;;;;;;;4.09;100.00;100914.94;4988407;28;20043;-67
2022/12/08 07:58:56;;;;;;;5.82;1.20;;;;;;;4.10;100.00;100911.44;4987659;28;20100;-66
2022/12/08 08:01:27;;;;;;;3.13;0.90;;;;;;;4.15;100.00;100902.72;4988495;28;20038;-66
2022/12/08 08:03:54;;;;;;;3.40;1.00;;;;;;;4.13;100.00;100894.00;4988520;28;20388;-66
2022/12/08 08:06:20;;;;;;;5.43;1.33;;;;;;;4.11;100.00;100898.38;4988734;28;20093;-67
2022/12/08 08:08:45;;;;;;;4.20;1.30;;;;;;;4.12;100.00;100897.50;4999856;28;20042;-66
2022/12/08 08:11:10;;;;;;;2.22;1.50;;;;;;;4.12;100.00;100900.13;5007282;28;20281;-66
2022/12/08 08:13:36;;;;;;;3.28;1.60;;;;;;;4.09;100.00;100894.91;5005033;28;20026;-66
2022/12/08 08:16:03;;;;;;;2.92;1.60;;;;;;;4.15;100.00;100907.03;5006192;28;20544;-65
2022/12/08 08:18:29;;;;;;;1.73;1.42;;;;;;;4.16;100.00;100916.63;5006652;28;20032;-65
2022/12/08 08:20:54;;;;;;;4.43;1.63;;;;;;;4.23;100.00;100920.03;5007843;28;20381;-65
2022/12/08 08:23:19;;;;;;;3.33;1.50;;;;;;;4.37;100.00;100926.03;5008164;28;20390;-64
2022/12/08 08:25:45;;;;;;;3.78;1.70;;;;;;;4.49;100.00;100930.31;5007645;28;20552;-65
2022/12/08 08:28:10;;;;;;;4.18;1.50;;;;;;;4.55;100.00;100935.47;5007209;28;20436;-68
2022/12/08 08:30:35;;;;;;;1.48;1.20;;;;;;;4.60;100.00;100937.22;5006189;28;20080;-67
2022/12/08 08:33:00;;;;;;;1.95;1.27;;;;;;;4.66;100.00;100938.03;4990459;28;20482;-66
2022/12/08 08:35:26;;;;;;;1.90;1.40;;;;;;;4.61;100.00;100944.16;4986348;28;20489;-65
2022/12/08 08:37:51;;;;;;;1.70;1.30;;;;;;;4.68;100.00;100935.41;4987124;28;20592;-66
2022/12/08 08:40:17;;;;;;;3.90;1.20;;;;;;;4.69;100.00;100937.13;4988628;28;20018;-65
2022/12/08 08:42:42;;;;;;;2.67;0.98;;;;;;;4.74;100.00;100929.25;4998813;28;20018;-65
2022/12/08 08:45:08;;;;;;;1.60;1.05;;;;;;;4.73;100.00;100927.53;4998315;28;20033;-67
2022/12/08 08:47:33;;;;;;;6.35;0.98;;;;;;;4.72;100.00;100924.03;4998712;28;20022;-66
2022/12/08 08:49:59;;;;;;;1.52;0.68;;;;;;;4.74;100.00;100929.25;5000548;28;20025;-68
2022/12/08 08:52:24;;;;;;;6.88;0.90;;;;;;;4.69;100.00;100931.91;5004185;28;20022;-66
2022/12/08 08:54:49;;;;;;;3.13;0.93;;;;;;;4.71;100.00;100924.94;5007643;28;20056;-66
2022/12/08 08:57:15;;;;;;;0.73;0.60;;;;;;;4.73;100.00;100923.16;5001501;28;20037;-65
2022/12/08 08:59:40;;;;;;;2.15;0.70;;;;;;;4.69;100.00;100921.47;5000953;28;20080;-68
2022/12/08 09:02:05;;;;;;;3.70;0.60;;;;;;;4.76;100.00;100923.13;5003211;28;20446;-66
2022/12/08 09:04:31;;;;;;;0.77;0.40;;;;;;;4.75;100.00;100924.03;5001368;28;20508;-65
2022/12/08 09:06:56;;;;;;;0.90;0.50;;;;;;;4.77;100.00;100924.00;4998440;28;20025;-64
2022/12/08 09:09:21;;;;;;;0.73;0.50;;;;;;;4.78;100.00;100928.34;5001326;28;20097;-65
2022/12/08 09:11:47;;;;;;;2.45;0.90;;;;;;;4.77;100.00;100929.25;5006163;28;20117;-65
2022/12/08 09:14:16;;;;;;;2.72;0.60;;;;;;;4.76;100.00;100928.34;5006638;28;20513;-66
2022/12/08 09:16:41;;;;;;;1.98;0.82;;;;;;;4.71;100.00;100932.78;5007915;28;20499;-65
2022/12/08 09:19:07;;;;;;;4.80;0.85;;;;;;;4.64;100.00;100936.31;5000709;28;20022;-66
2022/12/08 09:21:32;;;;;;;2.13;0.80;;;;;;;4.65;100.00;100931.06;5004188;28;20022;-65
2022/12/08 09:23:58;;;;;;;1.15;0.43;;;;;;;4.60;100.00;100927.63;5007869;28;20030;-66
2022/12/08 09:26:25;;;;;;;3.15;0.60;;;;;;;4.60;100.00;100932.84;5005380;28;20051;-66
2022/12/08 09:28:51;;;;;;;6.85;1.25;;;;;;;4.51;100.00;100923.34;5000009;28;20497;-64
2022/12/08 09:31:18;;;;;;;3.75;1.08;;;;;;;4.47;100.00;100926.84;5002855;28;20022;-66
2022/12/08 09:33:43;;;;;;;1.33;0.80;;;;;;;4.55;100.00;100917.22;4998606;28;20038;-65
2022/12/08 09:36:09;;;;;;;5.35;0.80;;;;;;;4.49;100.00;100922.47;4993734;28;20022;-65
2022/12/08 09:38:34;;;;;;;1.60;0.65;;;;;;;4.47;100.00;100921.63;5009180;28;20030;-66
2022/12/08 09:41:02;;;;;;;2.15;1.00;;;;;;;4.55;100.00;100927.66;5005686;28;20041;-66
2022/12/08 09:43:30;;;;;;;5.82;1.20;;;;;;;4.48;100.00;100923.34;5007657;28;20045;-65
2022/12/08 09:45:56;;;;;;;5.95;1.00;;;;;;;4.46;100.00;100912.09;4992957;28;20543;-65
2022/12/08 09:48:34;;;;;;;1.00;0.90;;;;;;;4.46;100.00;100919.91;4987959;28;20030;-65
2022/12/08 09:51:00;;;;;;;1.08;0.93;;;;;;;4.53;100.00;100913.78;4990226;28;20022;-66
2022/12/08 09:53:38;;;;;;;1.05;1.00;;;;;;;4.69;100.00;100911.03;5006058;28;20033;-66
2022/12/08 09:56:09;;;;;;;3.70;1.10;;;;;;;4.68;100.00;100914.53;4987372;28;20073;-65
2022/12/08 09:58:50;;;;;;;3.95;1.40;;;;;;;4.68;100.00;100917.13;4991299;28;20533;-66
2022/12/08 10:01:18;;;;;;;3.15;1.58;;;;;;;4.77;100.00;100914.44;4990200;28;20109;-65
2022/12/08 10:03:43;;;;;;;1.20;1.15;;;;;;;4.85;100.00;100918.72;4987939;28;20380;-66
2022/12/08 10:06:17;;;;;;;2.92;1.60;;;;;;;4.72;100.00;100916.22;4994785;28;20026;-67
2022/12/08 10:09:28;;;;;;;1.83;1.40;;;;;;;4.76;100.00;100936.19;4991014;28;20046;-67
2022/12/08 10:12:02;;;;;;;5.28;1.90;;;;;;;4.85;100.00;100916.13;4988067;28;20026;-67
2022/12/08 10:14:46;;;;;;;2.45;2.00;;;;;;;4.77;100.00;100914.44;4990280;28;20030;-66
2022/12/08 10:17:21;;;;;;;1.52;1.40;;;;;;;4.88;100.00;100921.31;4994165;28;20034;-66
2022/12/08 10:19:47;;;;;;;2.85;1.90;;;;;;;4.94;100.00;100916.06;5008661;28;20022;-66
2022/12/08 10:22:24;;;;;;;3.42;1.67;;;;;;;4.92;100.00;100917.78;5008937;28;20032;-66
2022/12/08 10:24:55;;;;;;;2.47;1.50;;;;;;;4.90;100.00;100909.09;5009972;28;20101;-65
2022/12/08 10:27:20;;;;;;;1.73;1.60;;;;;;;4.97;100.00;100902.94;5008541;28;20036;-66
2022/12/08 10:29:45;;;;;;;1.75;1.50;;;;;;;4.95;100.00;100906.44;5004896;28;20030;-66
2022/12/08 10:32:21;;;;;;;2.33;1.50;;;;;;;5.04;100.00;100898.53;5009398;28;20476;-64
2022/12/08 10:35:02;;;;;;;1.80;1.65;;;;;;;5.15;100.00;100901.88;5008717;28;20029;-65
2022/12/08 10:37:27;;;;;;;4.10;1.50;;;;;;;5.29;100.00;100896.53;5009378;28;20037;-65
2022/12/08 10:40:00;;;;;;;2.00;1.52;;;;;;;5.40;100.00;100903.38;5005143;28;20022;-66
2022/12/08 10:42:31;;;;;;;1.35;1.30;;;;;;;5.43;100.00;100898.13;5009221;28;20029;-66
2022/12/08 10:45:14;;;;;;;1.45;1.30;;;;;;;5.54;100.00;100904.09;5008169;28;20026;-67
2022/12/08 10:47:40;;;;;;;3.80;1.48;;;;;;;5.45;100.00;100896.38;5008545;28;20033;-68
2022/12/08 10:50:18;;;;;;;2.00;1.33;;;;;;;5.51;100.00;100898.88;5003281;28;20027;-64
2022/12/08 10:52:44;;;;;;;1.33;1.30;;;;;;;5.61;100.00;100896.16;4998550;28;20026;-65
2022/12/08 10:55:17;;;;;;;2.85;0.90;;;;;;;5.59;100.00;100892.69;5000166;28;20380;-66
2022/12/08 10:57:43;;;;;;;5.30;1.02;;;;;;;5.62;100.00;100892.66;4999313;28;20463;-65
2022/12/08 11:00:14;;;;;;;0.68;0.68;;;;;;;5.66;100.00;100878.69;4998189;28;20106;-65
2022/12/08 11:02:50;;;;;;;1.33;0.75;;;;;;;5.49;100.00;100871.94;4996493;28;20026;-67
2022/12/08 11:05:17;;;;;;;2.70;0.90;;;;;;;5.38;100.00;100865.94;4992239;28;20495;-67
2022/12/08 11:07:48;;;;;;;2.00;0.90;;;;;;;5.38;100.00;100858.09;5008500;28;20056;-63
2022/12/08 11:10:16;;;;;;;4.10;0.75;;;;;;;5.33;100.00;100858.19;5007076;28;20061;-66
2022/12/08 11:12:43;;;;;;;0.90;0.55;;;;;;;5.31;100.00;100854.72;5007605;28;20026;-64
2022/12/08 11:15:14;;;;;;;1.70;0.85;;;;;;;5.44;100.00;100853.69;5007242;28;20101;-65
2022/12/08 11:17:40;;;;;;;2.25;0.80;;;;;;;5.43;100.00;100843.25;5003949;28;20032;-67
2022/12/08 11:20:08;;;;;;;1.42;1.00;;;;;;;5.39;100.00;100842.41;5007389;28;20033;-64
2022/12/08 11:22:38;;;;;;;2.03;0.90;;;;;;;5.48;100.00;100833.59;5007957;28;20037;-65
2022/12/08 11:25:06;;;;;;;0.90;0.90;;;;;;;5.45;100.00;100831.03;5007585;28;20481;-65
2022/12/08 11:27:33;;;;;;;0.70;0.70;;;;;;;5.39;100.00;100834.56;5004873;28;20030;-65
2022/12/08 11:30:00;;;;;;;1.15;0.85;;;;;;;5.40;100.00;100823.25;5007124;28;20473;-64
2022/12/08 11:32:25;;;;;;;1.58;0.75;;;;;;;5.46;100.00;100830.13;5007912;28;20109;-65